sensor_id;sensor_type;location;lat;lon;timestamp;temperature;humidity
9730;DHT22;4904;49.152;11.004;2023-01-30T00:01:42;-1.60;99.90
9730;DHT22;4904;49.152;11.004;2023-01-30T00:04:10;-1.60;99.90
9730;DHT22;4904;49.152;11.004;2023-01-30T00:06:38;-1.50;99.90
9730;DHT22;4904;49.152;11.004;2023-01-30T00:09:06;-1.50;99.90
9730;DHT22;4904;49.152;11.004;2023-01-30T00:11:33;-1.50;99.90
9730;DHT22;4904;49.152;11.004;2023-01-30T00:14:00;-1.50;99.90
9730;DHT22;4904;49.152;11.004;2023-01-30T00:16:27;-1.50;99.90
9730;DHT22;4904;49.152;11.004;2023-01-30T00:18:54;-1.50;99.90
9730;DHT22;4904;49.152;11.004;2023-01-30T00:21:21;-1.50;99.90
9730;DHT22;4904;49.152;11.004;2023-01-30T00:23:48;-1.50;99.90
9730;DHT22;4904;49.152;11.004;2023-01-30T00:26:16;-1.50;99.90
9730;DHT22;4904;49.152;11.004;2023-01-30T00:28:43;-1.50;99.90
9730;DHT22;4904;49.152;11.004;2023-01-30T00:31:10;-1.50;99.90
9730;DHT22;4904;49.152;11.004;2023-01-30T00:33:37;-1.50;99.90
9730;DHT22;4904;49.152;11.004;2023-01-30T00:36:05;-1.50;99.90
9730;DHT22;4904;49.152;11.004;2023-01-30T00:38:32;-1.50;99.90
9730;DHT22;4904;49.152;11.004;2023-01-30T00:40:59;-1.50;99.90
9730;DHT22;4904;49.152;11.004;2023-01-30T00:43:28;-1.50;99.90
9730;DHT22;4904;49.152;11.004;2023-01-30T00:46:16;-1.50;99.90
9730;DHT22;4904;49.152;11.004;2023-01-30T00:49:02;-1.50;99.90
9730;DHT22;4904;49.152;11.004;2023-01-30T00:51:29;-1.50;99.90
9730;DHT22;4904;49.152;11.004;2023-01-30T00:53:56;-1.40;99.90
9730;DHT22;4904;49.152;11.004;2023-01-30T00:56:23;-1.40;99.90
9730;DHT22;4904;49.152;11.004;2023-01-30T00:58:51;-1.40;99.90
9730;DHT22;4904;49.152;11.004;2023-01-30T01:01:18;-1.30;99.90
9730;DHT22;4904;49.152;11.004;2023-01-30T01:03:45;-1.30;99.90
9730;DHT22;4904;49.152;11.004;2023-01-30T01:06:12;-1.30;99.90
9730;DHT22;4904;49.152;11.004;2023-01-30T01:08:40;-1.30;99.90
9730;DHT22;4904;49.152;11.004;2023-01-30T01:11:07;-1.30;99.90
9730;DHT22;4904;49.152;11.004;2023-01-30T01:13:34;-1.30;99.90
9730;DHT22;4904;49.152;11.004;2023-01-30T01:16:02;-1.30;99.90
9730;DHT22;4904;49.152;11.004;2023-01-30T01:18:29;-1.20;99.90
9730;DHT22;4904;49.152;11.004;2023-01-30T01:20:56;-1.20;99.90
9730;DHT22;4904;49.152;11.004;2023-01-30T01:23:23;-1.20;99.90
9730;DHT22;4904;49.152;11.004;2023-01-30T01:25:50;-1.10;99.90
9730;DHT22;4904;49.152;11.004;2023-01-30T01:28:17;-1.20;99.90
9730;DHT22;4904;49.152;11.004;2023-01-30T01:30:46;-1.20;99.90
9730;DHT22;4904;49.152;11.004;2023-01-30T01:33:15;-1.20;99.90
9730;DHT22;4904;49.152;11.004;2023-01-30T01:35:42;-1.30;99.90
9730;DHT22;4904;49.152;11.004;2023-01-30T01:38:09;-1.20;99.90
9730;DHT22;4904;49.152;11.004;2023-01-30T01:40:36;-1.20;99.90
9730;DHT22;4904;49.152;11.004;2023-01-30T01:43:21;-1.20;99.90
9730;DHT22;4904;49.152;11.004;2023-01-30T01:45:52;-1.20;99.90
9730;DHT22;4904;49.152;11.004;2023-01-30T01:48:27;-1.10;99.90
9730;DHT22;4904;49.152;11.004;2023-01-30T01:50:57;-1.10;99.90
9730;DHT22;4904;49.152;11.004;2023-01-30T01:53:31;-1.10;99.90
9730;DHT22;4904;49.152;11.004;2023-01-30T01:56:00;-1.00;99.90
9730;DHT22;4904;49.152;11.004;2023-01-30T01:58:33;-1.00;99.90
9730;DHT22;4904;49.152;11.004;2023-01-30T02:01:01;-1.00;99.90
9730;DHT22;4904;49.152;11.004;2023-01-30T02:03:33;-1.00;99.90
9730;DHT22;4904;49.152;11.004;2023-01-30T02:06:02;-1.00;99.90
9730;DHT22;4904;49.152;11.004;2023-01-30T02:08:32;-0.90;99.90
9730;DHT22;4904;49.152;11.004;2023-01-30T02:11:05;-0.90;99.90
9730;DHT22;4904;49.152;11.004;2023-01-30T02:13:34;-0.90;99.90
9730;DHT22;4904;49.152;11.004;2023-01-30T02:16:04;-0.90;99.90
9730;DHT22;4904;49.152;11.004;2023-01-30T02:18:35;-0.90;99.90
9730;DHT22;4904;49.152;11.004;2023-01-30T02:21:24;-0.80;99.90
9730;DHT22;4904;49.152;11.004;2023-01-30T02:24:28;-0.80;99.90
9730;DHT22;4904;49.152;11.004;2023-01-30T02:27:10;-0.80;99.90
9730;DHT22;4904;49.152;11.004;2023-01-30T02:33:00;-0.70;99.90
9730;DHT22;4904;49.152;11.004;2023-01-30T02:35:39;-0.70;99.90
9730;DHT22;4904;49.152;11.004;2023-01-30T02:38:21;-0.70;99.90
9730;DHT22;4904;49.152;11.004;2023-01-30T02:40:59;-0.50;99.90
9730;DHT22;4904;49.152;11.004;2023-01-30T02:43:35;-0.60;99.90
9730;DHT22;4904;49.152;11.004;2023-01-30T02:46:07;-0.60;99.90
9730;DHT22;4904;49.152;11.004;2023-01-30T02:48:40;-0.60;99.90
9730;DHT22;4904;49.152;11.004;2023-01-30T02:51:11;-0.60;99.90
9730;DHT22;4904;49.152;11.004;2023-01-30T02:53:40;-0.60;99.90
9730;DHT22;4904;49.152;11.004;2023-01-30T02:56:07;-0.70;99.90
9730;DHT22;4904;49.152;11.004;2023-01-30T02:58:37;-0.70;99.90
9730;DHT22;4904;49.152;11.004;2023-01-30T03:01:26;-0.70;99.90
9730;DHT22;4904;49.152;11.004;2023-01-30T03:04:09;-0.70;99.90
9730;DHT22;4904;49.152;11.004;2023-01-30T03:06:52;-0.70;99.90
9730;DHT22;4904;49.152;11.004;2023-01-30T03:09:29;-0.70;99.90
9730;DHT22;4904;49.152;11.004;2023-01-30T03:12:06;-0.70;99.90
9730;DHT22;4904;49.152;11.004;2023-01-30T03:14:41;-0.70;99.90
9730;DHT22;4904;49.152;11.004;2023-01-30T03:17:12;-0.70;99.90
9730;DHT22;4904;49.152;11.004;2023-01-30T03:19:41;-0.70;99.90
9730;DHT22;4904;49.152;11.004;2023-01-30T03:22:08;-0.70;99.90
9730;DHT22;4904;49.152;11.004;2023-01-30T03:24:35;-0.70;99.90
9730;DHT22;4904;49.152;11.004;2023-01-30T03:27:05;-0.70;99.90
9730;DHT22;4904;49.152;11.004;2023-01-30T03:29:33;-0.70;99.90
9730;DHT22;4904;49.152;11.004;2023-01-30T03:32:00;-0.70;99.90
9730;DHT22;4904;49.152;11.004;2023-01-30T03:34:27;-0.70;99.90
9730;DHT22;4904;49.152;11.004;2023-01-30T03:36:55;-0.70;99.90
9730;DHT22;4904;49.152;11.004;2023-01-30T03:39:23;-0.80;99.90
9730;DHT22;4904;49.152;11.004;2023-01-30T03:41:51;-0.80;99.90
9730;DHT22;4904;49.152;11.004;2023-01-30T03:44:18;-0.80;99.90
9730;DHT22;4904;49.152;11.004;2023-01-30T03:46:45;-0.80;99.90
9730;DHT22;4904;49.152;11.004;2023-01-30T03:49:12;-0.70;99.90
9730;DHT22;4904;49.152;11.004;2023-01-30T03:51:39;-0.80;99.90
9730;DHT22;4904;49.152;11.004;2023-01-30T03:54:07;-0.80;99.90
9730;DHT22;4904;49.152;11.004;2023-01-30T03:56:34;-0.80;99.90
9730;DHT22;4904;49.152;11.004;2023-01-30T03:59:01;-0.80;99.90
9730;DHT22;4904;49.152;11.004;2023-01-30T04:01:28;-0.80;99.90
9730;DHT22;4904;49.152;11.004;2023-01-30T04:03:55;-0.80;99.90
9730;DHT22;4904;49.152;11.004;2023-01-30T04:06:21;-0.80;99.90
9730;DHT22;4904;49.152;11.004;2023-01-30T04:08:51;-0.80;99.90
9730;DHT22;4904;49.152;11.004;2023-01-30T04:11:19;-0.80;99.90
9730;DHT22;4904;49.152;11.004;2023-01-30T04:13:46;-0.80;99.90
9730;DHT22;4904;49.152;11.004;2023-01-30T04:16:15;-0.70;99.90
9730;DHT22;4904;49.152;11.004;2023-01-30T04:18:42;-0.70;99.90
9730;DHT22;4904;49.152;11.004;2023-01-30T04:21:09;-0.70;99.90
9730;DHT22;4904;49.152;11.004;2023-01-30T04:23:36;-0.70;99.90
9730;DHT22;4904;49.152;11.004;2023-01-30T04:26:04;-0.70;99.90
9730;DHT22;4904;49.152;11.004;2023-01-30T04:28:33;-0.70;99.90
9730;DHT22;4904;49.152;11.004;2023-01-30T04:31:00;-0.70;99.90
9730;DHT22;4904;49.152;11.004;2023-01-30T04:33:27;-0.70;99.90
9730;DHT22;4904;49.152;11.004;2023-01-30T04:35:55;-0.70;99.90
9730;DHT22;4904;49.152;11.004;2023-01-30T04:38:25;-0.70;99.90
9730;DHT22;4904;49.152;11.004;2023-01-30T04:40:54;-0.70;99.90
9730;DHT22;4904;49.152;11.004;2023-01-30T04:43:23;-0.70;99.90
9730;DHT22;4904;49.152;11.004;2023-01-30T04:45:53;-0.70;99.90
9730;DHT22;4904;49.152;11.004;2023-01-30T04:48:21;-0.80;99.90
9730;DHT22;4904;49.152;11.004;2023-01-30T04:50:50;-0.70;99.90
9730;DHT22;4904;49.152;11.004;2023-01-30T04:53:18;-0.80;99.90
9730;DHT22;4904;49.152;11.004;2023-01-30T04:55:46;-0.80;99.90
9730;DHT22;4904;49.152;11.004;2023-01-30T04:58:13;-0.80;99.90
9730;DHT22;4904;49.152;11.004;2023-01-30T05:00:40;-0.80;99.90
9730;DHT22;4904;49.152;11.004;2023-01-30T05:03:09;-0.80;99.90
9730;DHT22;4904;49.152;11.004;2023-01-30T05:05:36;-0.80;99.90
9730;DHT22;4904;49.152;11.004;2023-01-30T05:08:03;-0.80;99.90
9730;DHT22;4904;49.152;11.004;2023-01-30T05:10:30;-0.80;99.90
9730;DHT22;4904;49.152;11.004;2023-01-30T05:13:01;-0.80;99.90
9730;DHT22;4904;49.152;11.004;2023-01-30T05:15:28;-0.80;99.90
9730;DHT22;4904;49.152;11.004;2023-01-30T05:17:55;-0.70;99.90
9730;DHT22;4904;49.152;11.004;2023-01-30T05:20:24;-0.80;99.90
9730;DHT22;4904;49.152;11.004;2023-01-30T05:22:50;-0.80;99.90
9730;DHT22;4904;49.152;11.004;2023-01-30T05:25:18;-0.80;99.90
9730;DHT22;4904;49.152;11.004;2023-01-30T05:27:44;-0.80;99.90
9730;DHT22;4904;49.152;11.004;2023-01-30T05:30:12;-0.70;99.90
9730;DHT22;4904;49.152;11.004;2023-01-30T05:32:39;-0.70;99.90
9730;DHT22;4904;49.152;11.004;2023-01-30T05:35:06;-0.70;99.90
9730;DHT22;4904;49.152;11.004;2023-01-30T05:37:35;-0.70;99.90
9730;DHT22;4904;49.152;11.004;2023-01-30T05:40:03;-0.60;99.90
9730;DHT22;4904;49.152;11.004;2023-01-30T05:42:31;-0.60;99.90
9730;DHT22;4904;49.152;11.004;2023-01-30T05:44:58;-0.60;99.90
9730;DHT22;4904;49.152;11.004;2023-01-30T05:47:25;-0.60;99.90
9730;DHT22;4904;49.152;11.004;2023-01-30T05:49:52;-0.60;99.90
9730;DHT22;4904;49.152;11.004;2023-01-30T05:52:19;-0.60;99.90
9730;DHT22;4904;49.152;11.004;2023-01-30T05:54:48;-0.60;99.90
9730;DHT22;4904;49.152;11.004;2023-01-30T05:57:15;-0.60;99.90
9730;DHT22;4904;49.152;11.004;2023-01-30T05:59:41;-0.60;99.90
9730;DHT22;4904;49.152;11.004;2023-01-30T06:02:08;-0.50;99.90
9730;DHT22;4904;49.152;11.004;2023-01-30T06:04:36;-0.50;99.90
9730;DHT22;4904;49.152;11.004;2023-01-30T06:07:02;-0.40;99.90
9730;DHT22;4904;49.152;11.004;2023-01-30T06:09:29;-0.40;99.90
9730;DHT22;4904;49.152;11.004;2023-01-30T06:11:58;-0.40;99.90
9730;DHT22;4904;49.152;11.004;2023-01-30T06:14:25;-0.40;99.90
9730;DHT22;4904;49.152;11.004;2023-01-30T06:16:52;-0.40;99.90
9730;DHT22;4904;49.152;11.004;2023-01-30T06:19:18;-0.30;99.90
9730;DHT22;4904;49.152;11.004;2023-01-30T06:21:45;-0.30;99.90
9730;DHT22;4904;49.152;11.004;2023-01-30T06:24:12;-0.20;99.90
9730;DHT22;4904;49.152;11.004;2023-01-30T06:26:39;-0.20;99.90
9730;DHT22;4904;49.152;11.004;2023-01-30T06:29:07;-0.20;99.90
9730;DHT22;4904;49.152;11.004;2023-01-30T06:31:34;-0.10;99.90
9730;DHT22;4904;49.152;11.004;2023-01-30T06:34:01;-0.10;99.90
9730;DHT22;4904;49.152;11.004;2023-01-30T06:36:28;-0.10;99.90
9730;DHT22;4904;49.152;11.004;2023-01-30T06:38:55;-0.10;99.90
9730;DHT22;4904;49.152;11.004;2023-01-30T06:41:22;0.10;99.90
9730;DHT22;4904;49.152;11.004;2023-01-30T06:43:49;0.00;99.90
9730;DHT22;4904;49.152;11.004;2023-01-30T06:46:17;0.00;99.90
9730;DHT22;4904;49.152;11.004;2023-01-30T06:48:44;0.30;99.90
9730;DHT22;4904;49.152;11.004;2023-01-30T06:51:11;0.00;99.90
9730;DHT22;4904;49.152;11.004;2023-01-30T06:53:37;0.00;99.90
9730;DHT22;4904;49.152;11.004;2023-01-30T06:56:05;0.00;99.90
9730;DHT22;4904;49.152;11.004;2023-01-30T06:58:32;0.00;99.90
9730;DHT22;4904;49.152;11.004;2023-01-30T07:00:59;0.00;99.90
9730;DHT22;4904;49.152;11.004;2023-01-30T07:03:28;0.00;99.90
9730;DHT22;4904;49.152;11.004;2023-01-30T07:05:55;0.10;99.90
9730;DHT22;4904;49.152;11.004;2023-01-30T07:08:22;0.00;99.90
9730;DHT22;4904;49.152;11.004;2023-01-30T07:10:48;0.00;99.90
9730;DHT22;4904;49.152;11.004;2023-01-30T07:13:15;0.00;99.90
9730;DHT22;4904;49.152;11.004;2023-01-30T07:15:43;0.00;99.90
9730;DHT22;4904;49.152;11.004;2023-01-30T07:18:10;0.00;99.90
9730;DHT22;4904;49.152;11.004;2023-01-30T07:20:39;0.00;99.90
9730;DHT22;4904;49.152;11.004;2023-01-30T07:23:07;0.00;99.90
9730;DHT22;4904;49.152;11.004;2023-01-30T07:25:34;0.00;99.90
9730;DHT22;4904;49.152;11.004;2023-01-30T07:28:01;0.00;99.90
9730;DHT22;4904;49.152;11.004;2023-01-30T07:30:30;0.00;99.90
9730;DHT22;4904;49.152;11.004;2023-01-30T07:32:58;0.00;99.90
9730;DHT22;4904;49.152;11.004;2023-01-30T07:35:27;0.20;99.90
9730;DHT22;4904;49.152;11.004;2023-01-30T07:37:56;0.10;99.90
9730;DHT22;4904;49.152;11.004;2023-01-30T07:40:23;0.10;99.90
9730;DHT22;4904;49.152;11.004;2023-01-30T07:42:58;0.10;99.90
9730;DHT22;4904;49.152;11.004;2023-01-30T07:45:28;0.20;99.90
9730;DHT22;4904;49.152;11.004;2023-01-30T07:47:56;0.30;99.90
9730;DHT22;4904;49.152;11.004;2023-01-30T07:50:23;0.30;99.90
9730;DHT22;4904;49.152;11.004;2023-01-30T07:52:50;0.20;99.90
9730;DHT22;4904;49.152;11.004;2023-01-30T07:55:19;0.20;99.90
9730;DHT22;4904;49.152;11.004;2023-01-30T07:57:45;0.20;99.90
9730;DHT22;4904;49.152;11.004;2023-01-30T08:00:13;0.30;99.90
9730;DHT22;4904;49.152;11.004;2023-01-30T08:02:40;0.30;99.90
9730;DHT22;4904;49.152;11.004;2023-01-30T08:05:08;0.30;99.90
9730;DHT22;4904;49.152;11.004;2023-01-30T08:07:35;0.30;99.90
9730;DHT22;4904;49.152;11.004;2023-01-30T08:10:02;0.30;99.90
9730;DHT22;4904;49.152;11.004;2023-01-30T08:12:30;0.30;99.90
9730;DHT22;4904;49.152;11.004;2023-01-30T08:14:57;0.30;99.90
9730;DHT22;4904;49.152;11.004;2023-01-30T08:17:24;0.30;99.90
9730;DHT22;4904;49.152;11.004;2023-01-30T08:19:51;0.30;99.90
9730;DHT22;4904;49.152;11.004;2023-01-30T08:22:18;0.30;99.90
9730;DHT22;4904;49.152;11.004;2023-01-30T08:24:45;0.30;99.90
9730;DHT22;4904;49.152;11.004;2023-01-30T08:27:12;0.40;99.90
9730;DHT22;4904;49.152;11.004;2023-01-30T08:29:40;0.40;99.90
9730;DHT22;4904;49.152;11.004;2023-01-30T08:32:07;0.30;99.90
9730;DHT22;4904;49.152;11.004;2023-01-30T08:34:34;0.30;99.90
9730;DHT22;4904;49.152;11.004;2023-01-30T08:37:01;0.30;99.90
9730;DHT22;4904;49.152;11.004;2023-01-30T08:39:28;0.40;99.90
9730;DHT22;4904;49.152;11.004;2023-01-30T08:41:55;0.40;99.90
9730;DHT22;4904;49.152;11.004;2023-01-30T08:44:22;0.40;99.90
9730;DHT22;4904;49.152;11.004;2023-01-30T08:46:50;0.50;99.90
9730;DHT22;4904;49.152;11.004;2023-01-30T08:49:17;0.60;99.90
9730;DHT22;4904;49.152;11.004;2023-01-30T08:51:44;0.60;99.90
9730;DHT22;4904;49.152;11.004;2023-01-30T08:54:11;0.60;99.90
9730;DHT22;4904;49.152;11.004;2023-01-30T08:56:38;0.70;99.90
9730;DHT22;4904;49.152;11.004;2023-01-30T08:59:06;0.70;99.90
9730;DHT22;4904;49.152;11.004;2023-01-30T09:01:33;0.70;99.90
9730;DHT22;4904;49.152;11.004;2023-01-30T09:04:03;0.70;99.90
9730;DHT22;4904;49.152;11.004;2023-01-30T09:06:31;0.70;99.90
9730;DHT22;4904;49.152;11.004;2023-01-30T09:08:58;0.70;99.90
9730;DHT22;4904;49.152;11.004;2023-01-30T09:11:26;0.80;99.90
9730;DHT22;4904;49.152;11.004;2023-01-30T09:13:53;0.80;99.90
9730;DHT22;4904;49.152;11.004;2023-01-30T09:16:20;0.80;99.90
9730;DHT22;4904;49.152;11.004;2023-01-30T09:18:46;0.80;99.90
9730;DHT22;4904;49.152;11.004;2023-01-30T09:21:15;0.80;99.90
9730;DHT22;4904;49.152;11.004;2023-01-30T09:23:42;0.80;99.90
9730;DHT22;4904;49.152;11.004;2023-01-30T09:26:09;0.90;99.90
9730;DHT22;4904;49.152;11.004;2023-01-30T09:28:36;0.90;99.90
9730;DHT22;4904;49.152;11.004;2023-01-30T09:31:03;0.90;99.90
9730;DHT22;4904;49.152;11.004;2023-01-30T09:33:30;0.90;99.90
9730;DHT22;4904;49.152;11.004;2023-01-30T09:35:57;1.00;99.90
9730;DHT22;4904;49.152;11.004;2023-01-30T09:38:25;1.00;99.90
9730;DHT22;4904;49.152;11.004;2023-01-30T09:41:07;1.30;99.90
9730;DHT22;4904;49.152;11.004;2023-01-30T09:43:50;1.20;99.90
9730;DHT22;4904;49.152;11.004;2023-01-30T09:46:28;1.20;99.90
9730;DHT22;4904;49.152;11.004;2023-01-30T09:49:03;1.20;99.90
9730;DHT22;4904;49.152;11.004;2023-01-30T09:51:41;1.10;99.90
9730;DHT22;4904;49.152;11.004;2023-01-30T09:54:16;1.10;99.90
9730;DHT22;4904;49.152;11.004;2023-01-30T09:56:44;1.00;99.90
9730;DHT22;4904;49.152;11.004;2023-01-30T09:59:18;1.00;99.90
9730;DHT22;4904;49.152;11.004;2023-01-30T10:01:52;1.00;99.90
9730;DHT22;4904;49.152;11.004;2023-01-30T10:04:24;0.90;99.90
9730;DHT22;4904;49.152;11.004;2023-01-30T10:07:00;0.90;99.90
9730;DHT22;4904;49.152;11.004;2023-01-30T10:09:39;0.90;99.90
9730;DHT22;4904;49.152;11.004;2023-01-30T10:12:24;0.90;99.90
9730;DHT22;4904;49.152;11.004;2023-01-30T10:17:56;0.90;99.90
9730;DHT22;4904;49.152;11.004;2023-01-30T10:20:40;0.90;99.90
9730;DHT22;4904;49.152;11.004;2023-01-30T10:23:24;0.90;99.90
9730;DHT22;4904;49.152;11.004;2023-01-30T10:26:09;0.90;99.90
9730;DHT22;4904;49.152;11.004;2023-01-30T10:28:40;0.90;99.90
9730;DHT22;4904;49.152;11.004;2023-01-30T10:31:10;0.90;99.90
9730;DHT22;4904;49.152;11.004;2023-01-30T10:33:42;1.00;99.90
9730;DHT22;4904;49.152;11.004;2023-01-30T10:36:12;1.10;99.90
9730;DHT22;4904;49.152;11.004;2023-01-30T10:38:43;1.10;99.90
9730;DHT22;4904;49.152;11.004;2023-01-30T10:41:19;1.30;99.90
9730;DHT22;4904;49.152;11.004;2023-01-30T10:43:56;1.20;99.90
9730;DHT22;4904;49.152;11.004;2023-01-30T10:46:37;1.20;99.90
9730;DHT22;4904;49.152;11.004;2023-01-30T10:49:14;1.20;99.90
9730;DHT22;4904;49.152;11.004;2023-01-30T10:51:49;1.30;99.90
9730;DHT22;4904;49.152;11.004;2023-01-30T10:54:24;1.30;99.90
9730;DHT22;4904;49.152;11.004;2023-01-30T10:56:59;1.30;99.90
9730;DHT22;4904;49.152;11.004;2023-01-30T10:59:38;1.30;99.90
9730;DHT22;4904;49.152;11.004;2023-01-30T11:02:18;1.40;99.90
9730;DHT22;4904;49.152;11.004;2023-01-30T11:04:55;1.40;99.90
9730;DHT22;4904;49.152;11.004;2023-01-30T11:07:22;1.40;99.90
9730;DHT22;4904;49.152;11.004;2023-01-30T11:09:49;1.50;99.90
9730;DHT22;4904;49.152;11.004;2023-01-30T11:12:18;1.60;99.90
9730;DHT22;4904;49.152;11.004;2023-01-30T11:14:53;1.40;99.90
9730;DHT22;4904;49.152;11.004;2023-01-30T11:17:28;1.50;99.90
9730;DHT22;4904;49.152;11.004;2023-01-30T11:20:00;1.50;99.90
9730;DHT22;4904;49.152;11.004;2023-01-30T11:22:27;1.60;99.90
9730;DHT22;4904;49.152;11.004;2023-01-30T11:25:05;1.60;99.90
9730;DHT22;4904;49.152;11.004;2023-01-30T11:27:34;1.60;99.90
9730;DHT22;4904;49.152;11.004;2023-01-30T11:30:04;1.60;99.90
9730;DHT22;4904;49.152;11.004;2023-01-30T11:32:31;1.60;99.90
9730;DHT22;4904;49.152;11.004;2023-01-30T11:35:24;1.60;99.90
9730;DHT22;4904;49.152;11.004;2023-01-30T11:37:52;1.60;99.90
9730;DHT22;4904;49.152;11.004;2023-01-30T11:40:25;1.60;99.90
9730;DHT22;4904;49.152;11.004;2023-01-30T11:43:01;1.70;99.90
9730;DHT22;4904;49.152;11.004;2023-01-30T11:45:34;1.80;99.90
9730;DHT22;4904;49.152;11.004;2023-01-30T11:48:09;1.80;99.90
9730;DHT22;4904;49.152;11.004;2023-01-30T11:50:40;1.60;99.90
9730;DHT22;4904;49.152;11.004;2023-01-30T11:53:26;1.60;99.90
9730;DHT22;4904;49.152;11.004;2023-01-30T11:55:57;1.70;99.90
9730;DHT22;4904;49.152;11.004;2023-01-30T11:58:30;1.50;99.90
9730;DHT22;4904;49.152;11.004;2023-01-30T12:00:59;1.50;99.90
9730;DHT22;4904;49.152;11.004;2023-01-30T12:03:27;1.50;99.90
9730;DHT22;4904;49.152;11.004;2023-01-30T12:05:56;1.50;99.90
9730;DHT22;4904;49.152;11.004;2023-01-30T12:08:26;1.50;99.90
9730;DHT22;4904;49.152;11.004;2023-01-30T12:10:58;1.50;99.90
9730;DHT22;4904;49.152;11.004;2023-01-30T12:13:31;1.50;99.90
9730;DHT22;4904;49.152;11.004;2023-01-30T12:16:15;1.50;99.90
9730;DHT22;4904;49.152;11.004;2023-01-30T12:18:50;1.50;99.90
9730;DHT22;4904;49.152;11.004;2023-01-30T12:21:27;1.50;99.90
9730;DHT22;4904;49.152;11.004;2023-01-30T12:24:02;1.60;99.90
9730;DHT22;4904;49.152;11.004;2023-01-30T12:26:34;1.60;99.90
9730;DHT22;4904;49.152;11.004;2023-01-30T12:29:18;1.60;99.90
9730;DHT22;4904;49.152;11.004;2023-01-30T12:31:53;1.60;99.90
9730;DHT22;4904;49.152;11.004;2023-01-30T12:34:24;1.60;99.90
9730;DHT22;4904;49.152;11.004;2023-01-30T12:36:57;1.60;99.90
9730;DHT22;4904;49.152;11.004;2023-01-30T12:39:35;1.60;99.90
9730;DHT22;4904;49.152;11.004;2023-01-30T12:42:25;1.70;99.90
9730;DHT22;4904;49.152;11.004;2023-01-30T12:45:16;1.70;99.90
9730;DHT22;4904;49.152;11.004;2023-01-30T12:50:50;1.70;99.90
9730;DHT22;4904;49.152;11.004;2023-01-30T12:53:30;1.70;99.90
9730;DHT22;4904;49.152;11.004;2023-01-30T12:56:20;1.70;99.90
9730;DHT22;4904;49.152;11.004;2023-01-30T12:58:52;1.80;99.90
9730;DHT22;4904;49.152;11.004;2023-01-30T13:01:27;1.80;99.90
9730;DHT22;4904;49.152;11.004;2023-01-30T13:04:02;1.80;99.90
9730;DHT22;4904;49.152;11.004;2023-01-30T13:06:43;1.80;99.90
9730;DHT22;4904;49.152;11.004;2023-01-30T13:09:24;1.80;99.90
9730;DHT22;4904;49.152;11.004;2023-01-30T13:11:59;1.80;99.90
9730;DHT22;4904;49.152;11.004;2023-01-30T13:14:35;1.80;99.90
9730;DHT22;4904;49.152;11.004;2023-01-30T13:17:19;1.80;99.90
9730;DHT22;4904;49.152;11.004;2023-01-30T13:19:56;1.80;99.90
9730;DHT22;4904;49.152;11.004;2023-01-30T13:22:29;1.80;99.90
9730;DHT22;4904;49.152;11.004;2023-01-30T13:25:05;1.80;99.90
9730;DHT22;4904;49.152;11.004;2023-01-30T13:27:36;1.80;99.90
9730;DHT22;4904;49.152;11.004;2023-01-30T13:30:05;1.80;99.90
9730;DHT22;4904;49.152;11.004;2023-01-30T13:32:39;1.80;99.90
9730;DHT22;4904;49.152;11.004;2023-01-30T13:35:14;1.90;99.90
9730;DHT22;4904;49.152;11.004;2023-01-30T13:37:43;1.90;99.90
9730;DHT22;4904;49.152;11.004;2023-01-30T13:40:15;1.90;99.90
9730;DHT22;4904;49.152;11.004;2023-01-30T13:42:47;1.90;99.90
9730;DHT22;4904;49.152;11.004;2023-01-30T13:45:19;1.90;99.90
9730;DHT22;4904;49.152;11.004;2023-01-30T13:47:55;2.00;99.90
9730;DHT22;4904;49.152;11.004;2023-01-30T13:50:40;2.00;99.90
9730;DHT22;4904;49.152;11.004;2023-01-30T13:53:16;2.00;99.90
9730;DHT22;4904;49.152;11.004;2023-01-30T13:55:50;2.10;99.90
9730;DHT22;4904;49.152;11.004;2023-01-30T13:58:35;2.20;99.90
9730;DHT22;4904;49.152;11.004;2023-01-30T14:01:08;2.30;99.90
9730;DHT22;4904;49.152;11.004;2023-01-30T14:03:37;2.30;99.90
9730;DHT22;4904;49.152;11.004;2023-01-30T14:06:32;2.40;99.90
9730;DHT22;4904;49.152;11.004;2023-01-30T14:09:04;2.40;99.90
9730;DHT22;4904;49.152;11.004;2023-01-30T14:11:38;2.40;99.90
9730;DHT22;4904;49.152;11.004;2023-01-30T14:14:23;2.50;99.90
9730;DHT22;4904;49.152;11.004;2023-01-30T14:16:52;2.50;99.90
9730;DHT22;4904;49.152;11.004;2023-01-30T14:19:38;2.50;99.90
9730;DHT22;4904;49.152;11.004;2023-01-30T14:22:31;2.50;99.90
9730;DHT22;4904;49.152;11.004;2023-01-30T14:34:47;2.70;99.90
9730;DHT22;4904;49.152;11.004;2023-01-30T14:40:34;2.50;99.90
9730;DHT22;4904;49.152;11.004;2023-01-30T14:48:58;2.50;99.90
9730;DHT22;4904;49.152;11.004;2023-01-30T14:51:33;2.70;99.90
9730;DHT22;4904;49.152;11.004;2023-01-30T14:54:05;2.50;99.90
9730;DHT22;4904;49.152;11.004;2023-01-30T14:56:40;2.50;99.90
9730;DHT22;4904;49.152;11.004;2023-01-30T14:59:15;2.50;99.90
9730;DHT22;4904;49.152;11.004;2023-01-30T15:01:56;2.50;99.90
9730;DHT22;4904;49.152;11.004;2023-01-30T15:04:26;2.50;99.90
9730;DHT22;4904;49.152;11.004;2023-01-30T15:06:58;2.50;99.90
9730;DHT22;4904;49.152;11.004;2023-01-30T15:09:26;2.50;99.90
9730;DHT22;4904;49.152;11.004;2023-01-30T15:12:05;2.50;99.90
9730;DHT22;4904;49.152;11.004;2023-01-30T15:14:41;2.50;99.90
9730;DHT22;4904;49.152;11.004;2023-01-30T15:17:19;2.60;99.90
9730;DHT22;4904;49.152;11.004;2023-01-30T15:20:00;2.60;99.90
9730;DHT22;4904;49.152;11.004;2023-01-30T15:22:37;2.60;99.90
9730;DHT22;4904;49.152;11.004;2023-01-30T15:25:21;2.50;99.90
9730;DHT22;4904;49.152;11.004;2023-01-30T15:28:01;2.50;99.90
9730;DHT22;4904;49.152;11.004;2023-01-30T15:30:46;2.60;99.90
9730;DHT22;4904;49.152;11.004;2023-01-30T15:33:22;2.60;99.90
9730;DHT22;4904;49.152;11.004;2023-01-30T15:35:49;2.60;99.90
9730;DHT22;4904;49.152;11.004;2023-01-30T15:38:26;2.70;99.90
9730;DHT22;4904;49.152;11.004;2023-01-30T15:40:55;2.70;99.90
9730;DHT22;4904;49.152;11.004;2023-01-30T15:43:41;2.70;99.90
9730;DHT22;4904;49.152;11.004;2023-01-30T15:46:18;2.70;99.90
9730;DHT22;4904;49.152;11.004;2023-01-30T15:48:58;3.00;99.90
9730;DHT22;4904;49.152;11.004;2023-01-30T15:51:28;2.80;99.90
9730;DHT22;4904;49.152;11.004;2023-01-30T15:54:01;2.80;99.90
9730;DHT22;4904;49.152;11.004;2023-01-30T15:56:30;2.80;99.90
9730;DHT22;4904;49.152;11.004;2023-01-30T15:58:59;2.90;99.90
9730;DHT22;4904;49.152;11.004;2023-01-30T16:01:27;2.80;99.90
9730;DHT22;4904;49.152;11.004;2023-01-30T16:03:54;2.90;99.90
9730;DHT22;4904;49.152;11.004;2023-01-30T16:06:29;2.90;99.90
9730;DHT22;4904;49.152;11.004;2023-01-30T16:09:00;2.90;99.90
9730;DHT22;4904;49.152;11.004;2023-01-30T16:11:34;2.80;99.90
9730;DHT22;4904;49.152;11.004;2023-01-30T16:14:02;2.80;99.90
9730;DHT22;4904;49.152;11.004;2023-01-30T16:16:29;2.90;99.90
9730;DHT22;4904;49.152;11.004;2023-01-30T16:18:58;2.90;99.90
9730;DHT22;4904;49.152;11.004;2023-01-30T16:21:31;2.90;99.90
9730;DHT22;4904;49.152;11.004;2023-01-30T16:24:03;2.90;99.90
9730;DHT22;4904;49.152;11.004;2023-01-30T16:26:32;2.90;99.90
9730;DHT22;4904;49.152;11.004;2023-01-30T16:29:02;2.90;99.90
9730;DHT22;4904;49.152;11.004;2023-01-30T16:31:31;3.30;99.90
9730;DHT22;4904;49.152;11.004;2023-01-30T16:33:59;2.80;99.90
9730;DHT22;4904;49.152;11.004;2023-01-30T16:36:37;2.80;99.90
9730;DHT22;4904;49.152;11.004;2023-01-30T16:39:28;2.90;99.90
9730;DHT22;4904;49.152;11.004;2023-01-30T16:41:56;2.90;99.90
9730;DHT22;4904;49.152;11.004;2023-01-30T16:44:26;2.90;99.90
9730;DHT22;4904;49.152;11.004;2023-01-30T16:46:56;2.80;99.90
9730;DHT22;4904;49.152;11.004;2023-01-30T16:49:37;2.80;99.90